Time;durP1;ratioP1;P1;durP2;ratioP2;P2;SDS_P1;SDS_P2;PMS_P1;PMS_P2;Temp;Humidity;BMP_temperature;BMP_pressure;BME280_temperature;BME280_humidity;BME280_pressure;Samples;Min_cycle;Max_cycle;Signal;HPM_P1;HPM_P2
2021/07/29 00:00:45;;;;;;;;;;;;;;;17.19;72.57;100124.34;5116480;28;19924;-75
2021/07/29 00:03:11;;;;;;;;;;;;;;;17.05;73.38;100124.78;5116429;28;19923;-75
2021/07/29 00:05:38;;;;;;;;;;;;;;;17.19;72.89;100123.53;5116301;28;20405;-75
2021/07/29 00:08:05;;;;;;;;;;;;;;;17.09;73.41;100109.56;5116812;28;19969;-75
2021/07/29 00:10:32;;;;;;;;;;;;;;;16.99;73.68;100109.59;5116540;28;19924;-75
2021/07/29 00:12:59;;;;;;;;;;;;;;;17.01;73.20;100106.84;5116497;28;20002;-75
2021/07/29 00:15:26;;;;;;;;;;;;;;;16.80;74.42;100104.34;5116755;28;20345;-75
2021/07/29 00:20:39;;;;;;;;;;;;;;;16.83;74.24;100094.41;5116051;28;19931;-75
2021/07/29 00:23:05;;;;;;;;;;;;;;;16.76;74.78;100094.09;5116238;28;20316;-75
2021/07/29 00:25:32;;;;;;;;;;;;;;;16.79;74.61;100093.03;5116579;28;19924;-75
2021/07/29 00:27:59;;;;;;;;;;;;;;;16.69;74.98;100082.50;5116241;28;20367;-75
2021/07/29 00:30:27;;;;;;;;;;;;;;;16.55;75.38;100082.94;5116402;28;19930;-75
2021/07/29 00:32:55;;;;;;;;;;;;;;;16.58;74.99;100077.41;5116218;28;19931;-75
2021/07/29 00:35:22;;;;;;;;;;;;;;;16.60;74.68;100077.28;5115973;28;19931;-75
2021/07/29 00:37:50;;;;;;;;;;;;;;;16.67;74.46;100066.06;5116102;28;20333;-75
2021/07/29 00:40:17;;;;;;;;;;;;;;;16.69;74.13;100068.53;5116221;27;19923;-75
2021/07/29 00:42:43;;;;;;;;;;;;;;;16.54;74.74;100073.38;5115900;28;19924;-75
2021/07/29 00:45:10;;;;;;;;;;;;;;;16.51;74.73;100069.25;5116172;28;19923;-75
2021/07/29 00:47:39;;;;;;;;;;;;;;;16.49;74.70;100060.69;5115879;28;19930;-75
2021/07/29 00:50:08;;;;;;;;;;;;;;;16.43;74.88;100061.22;5115697;28;19924;-75
2021/07/29 00:52:35;;;;;;;;;;;;;;;16.48;74.62;100056.41;5115850;28;19923;-75
2021/07/29 00:55:02;;;;;;;;;;;;;;;16.41;75.07;100057.91;5115611;28;19931;-75
2021/07/29 00:57:28;;;;;;;;;;;;;;;16.42;75.06;100054.34;5115665;28;20412;-75
2021/07/29 00:59:55;;;;;;;;;;;;;;;16.38;75.12;100058.19;5115675;28;20329;-75
2021/07/29 01:02:23;;;;;;;;;;;;;;;16.16;75.91;100050.59;5115333;28;19924;-74
2021/07/29 01:04:49;;;;;;;;;;;;;;;16.35;75.29;100050.59;5114570;28;20486;-74
2021/07/29 01:07:17;;;;;;;;;;;;;;;16.39;74.90;100045.88;5115741;28;19924;-75
2021/07/29 01:09:44;;;;;;;;;;;;;;;16.30;75.40;100044.94;5115480;28;19923;-74
2021/07/29 01:12:10;;;;;;;;;;;;;;;16.24;75.60;100042.88;5115588;28;19931;-74
2021/07/29 01:14:37;;;;;;;;;;;;;;;16.22;75.82;100039.56;5115092;28;20298;-74
2021/07/29 01:17:04;;;;;;;;;;;;;;;16.20;75.55;100044.94;5115477;28;19924;-74
2021/07/29 01:19:31;;;;;;;;;;;;;;;16.12;75.81;100039.53;5115583;28;20339;-75
2021/07/29 01:21:59;;;;;;;;;;;;;;;16.15;75.39;100035.81;5115155;28;19931;-75
2021/07/29 01:24:27;;;;;;;;;;;;;;;16.28;74.62;100037.19;5115017;28;19923;-75
2021/07/29 01:26:54;;;;;;;;;;;;;;;16.27;75.30;100032.09;5115132;28;19923;-75
2021/07/29 01:29:20;;;;;;;;;;;;;;;16.17;75.60;100029.47;5114835;28;19924;-75
2021/07/29 01:31:47;;;;;;;;;;;;;;;16.15;75.73;100028.78;5114957;28;19930;-75
2021/07/29 01:34:16;;;;;;;;;;;;;;;16.41;74.84;100022.97;5114900;28;19924;-75
2021/07/29 01:36:42;;;;;;;;;;;;;;;16.43;74.88;100027.09;5114603;28;19930;-75
2021/07/29 01:39:10;;;;;;;;;;;;;;;16.46;74.95;100024.19;5115125;28;19935;-75
2021/07/29 01:41:37;;;;;;;;;;;;;;;16.19;76.11;100024.91;5114593;28;19931;-75
2021/07/29 01:44:04;;;;;;;;;;;;;;;16.14;76.59;100018.44;5114704;28;19924;-76
2021/07/29 01:46:31;;;;;;;;;;;;;;;15.92;77.68;100016.88;5114991;28;19931;-73
2021/07/29 01:48:57;;;;;;;;;;;;;;;16.01;77.22;100011.66;5114379;28;19938;-74
2021/07/29 01:51:24;;;;;;;;;;;;;;;15.80;78.18;100013.53;5114703;28;19924;-75
2021/07/29 01:53:50;;;;;;;;;;;;;;;15.75;78.55;100013.13;5114617;28;19931;-75
2021/07/29 01:56:20;;;;;;;;;;;;;;;15.91;77.34;100008.19;5114485;28;19924;-75
2021/07/29 01:58:47;;;;;;;;;;;;;;;15.94;77.40;100007.09;5114196;28;20289;-75
2021/07/29 02:01:20;;;;;;;;;;;;;;;15.68;78.15;100005.78;5114662;28;19923;-75
2021/07/29 02:03:47;;;;;;;;;;;;;;;15.60;78.63;100005.63;5113974;28;19924;-75
2021/07/29 02:06:13;;;;;;;;;;;;;;;15.60;78.18;100010.88;5114412;28;19923;-75
2021/07/29 02:08:40;;;;;;;;;;;;;;;15.66;77.77;100004.25;5113965;28;19939;-75
2021/07/29 02:11:06;;;;;;;;;;;;;;;16.03;76.04;99993.13;5114149;28;20381;-75
2021/07/29 02:13:34;;;;;;;;;;;;;;;16.19;75.09;100000.47;5114289;28;19923;-75
2021/07/29 02:16:01;;;;;;;;;;;;;;;15.94;75.97;99994.78;5113759;28;19924;-75
2021/07/29 02:18:28;;;;;;;;;;;;;;;15.81;76.52;99997.69;5114097;28;20401;-75
2021/07/29 02:20:54;;;;;;;;;;;;;;;15.89;75.78;99991.75;5114066;28;19932;-75
2021/07/29 02:23:21;;;;;;;;;;;;;;;15.88;75.51;99990.94;5113823;28;19923;-75
2021/07/29 02:25:47;;;;;;;;;;;;;;;15.95;74.93;99988.56;5113885;28;19924;-75
2021/07/29 02:28:14;;;;;;;;;;;;;;;16.29;73.44;99994.25;5114132;28;19924;-75
2021/07/29 02:30:42;;;;;;;;;;;;;;;16.30;73.18;99985.38;5113558;28;19930;-75
2021/07/29 02:33:08;;;;;;;;;;;;;;;16.44;73.65;99988.53;5113801;28;19923;-75
2021/07/29 02:35:35;;;;;;;;;;;;;;;16.44;73.63;99983.28;5113652;28;20301;-75
2021/07/29 02:38:02;;;;;;;;;;;;;;;16.17;74.08;99986.66;5113809;28;19923;-75
2021/07/29 02:40:28;;;;;;;;;;;;;;;16.00;75.26;99980.28;5113666;28;19931;-75
2021/07/29 02:42:55;;;;;;;;;;;;;;;15.98;74.67;99980.44;5113317;28;19924;-75
2021/07/29 02:45:21;;;;;;;;;;;;;;;16.09;73.74;99979.47;5113867;28;19924;-75
2021/07/29 02:47:50;;;;;;;;;;;;;;;16.26;72.75;99968.28;5113102;28;19936;-75
2021/07/29 02:50:17;;;;;;;;;;;;;;;16.18;73.42;99965.50;5113530;28;19923;-75
2021/07/29 02:52:43;;;;;;;;;;;;;;;16.19;73.65;99961.94;5113210;28;19924;-74
2021/07/29 02:55:10;;;;;;;;;;;;;;;16.03;74.20;99967.75;5113412;28;20301;-75
2021/07/29 02:57:37;;;;;;;;;;;;;;;16.20;73.30;99955.69;5113698;28;19924;-75
2021/07/29 03:00:04;;;;;;;;;;;;;;;16.27;73.13;99951.56;5113258;28;19930;-75
2021/07/29 03:02:30;;;;;;;;;;;;;;;16.39;73.06;99954.84;5113210;28;19924;-75
2021/07/29 03:04:58;;;;;;;;;;;;;;;16.42;72.98;99948.50;5113378;28;19930;-75
2021/07/29 03:07:26;;;;;;;;;;;;;;;16.69;71.20;99951.16;5113232;28;19931;-75
2021/07/29 03:09:53;;;;;;;;;;;;;;;16.86;70.77;99951.44;5113217;27;19983;-75
2021/07/29 03:12:19;;;;;;;;;;;;;;;16.77;71.17;99950.44;5113076;28;19934;-75
2021/07/29 03:14:46;;;;;;;;;;;;;;;16.89;71.17;99949.34;5113189;28;19924;-75
2021/07/29 03:17:13;;;;;;;;;;;;;;;16.99;70.83;99946.66;5113398;28;19924;-75
2021/07/29 03:19:39;;;;;;;;;;;;;;;16.94;71.39;99947.09;5113032;28;19923;-75
2021/07/29 03:22:07;;;;;;;;;;;;;;;16.94;70.96;99943.66;5113168;28;19924;-75
2021/07/29 03:24:34;;;;;;;;;;;;;;;17.22;69.15;99941.03;5113009;28;20382;-75
2021/07/29 03:27:01;;;;;;;;;;;;;;;17.23;69.98;99940.88;5112947;28;19924;-75
2021/07/29 03:29:29;;;;;;;;;;;;;;;17.26;69.15;99947.63;5112777;28;19924;-75
2021/07/29 03:31:55;;;;;;;;;;;;;;;17.47;67.95;99940.31;5112986;28;19931;-75
2021/07/29 03:34:22;;;;;;;;;;;;;;;17.47;68.41;99934.22;5112784;28;19924;-75
2021/07/29 03:36:49;;;;;;;;;;;;;;;17.63;66.72;99937.84;5112573;28;19931;-75
2021/07/29 03:39:17;;;;;;;;;;;;;;;17.70;67.22;99929.34;5113151;28;19930;-75
2021/07/29 03:41:43;;;;;;;;;;;;;;;17.77;66.74;99931.22;5112778;28;19924;-75
2021/07/29 03:44:10;;;;;;;;;;;;;;;17.72;67.55;99925.59;5112707;28;19927;-75
2021/07/29 03:46:36;;;;;;;;;;;;;;;17.66;67.67;99923.56;5112799;28;20393;-75
2021/07/29 03:49:03;;;;;;;;;;;;;;;17.73;66.87;99919.38;5112998;28;19930;-75
2021/07/29 03:51:30;;;;;;;;;;;;;;;17.86;66.30;99918.19;5112951;28;19934;-75
2021/07/29 03:53:57;;;;;;;;;;;;;;;17.66;67.52;99926.19;5112484;28;19954;-75
2021/07/29 03:56:25;;;;;;;;;;;;;;;17.62;67.14;99920.44;5113039;28;19923;-75
2021/07/29 03:58:51;;;;;;;;;;;;;;;17.76;66.50;99921.69;5112637;28;19928;-75
2021/07/29 04:01:18;;;;;;;;;;;;;;;17.51;68.64;99917.19;5112576;28;19924;-75
2021/07/29 04:03:46;;;;;;;;;;;;;;;17.61;67.40;99917.94;5112221;28;20397;-75
2021/07/29 04:06:16;;;;;;;;;;;;;;;17.82;66.26;99907.94;5112608;28;20396;-76
2021/07/29 04:08:42;;;;;;;;;;;;;;;17.97;64.90;99910.06;5112671;28;19924;-75
2021/07/29 04:11:09;;;;;;;;;;;;;;;17.88;66.65;99909.16;5112562;28;19924;-76
2021/07/29 04:13:37;;;;;;;;;;;;;;;18.04;66.84;99905.84;5112338;28;20378;-76
2021/07/29 04:16:04;;;;;;;;;;;;;;;18.09;65.77;99905.38;5112525;28;20431;-76
2021/07/29 04:18:32;;;;;;;;;;;;;;;18.09;66.30;99903.56;5112504;28;19973;-76
2021/07/29 04:20:59;;;;;;;;;;;;;;;18.24;65.88;99899.41;5112261;28;20370;-76
2021/07/29 04:23:25;;;;;;;;;;;;;;;18.37;64.35;99896.34;5112591;28;20293;-76
2021/07/29 04:25:52;;;;;;;;;;;;;;;18.40;65.37;99895.22;5112489;28;19927;-75
2021/07/29 04:28:18;;;;;;;;;;;;;;;18.49;65.19;99892.44;5112670;28;19924;-76
2021/07/29 04:30:46;;;;;;;;;;;;;;;18.63;64.68;99895.50;5112165;28;19924;-75
2021/07/29 04:33:14;;;;;;;;;;;;;;;18.71;64.07;99888.44;5112290;28;19923;-75
2021/07/29 04:35:40;;;;;;;;;;;;;;;18.74;63.97;99882.03;5112005;28;20390;-75
2021/07/29 04:38:07;;;;;;;;;;;;;;;18.72;63.54;99884.00;5112335;28;20377;-75
2021/07/29 04:40:33;;;;;;;;;;;;;;;18.78;62.44;99882.56;5114204;28;19923;-75
2021/07/29 04:43:00;;;;;;;;;;;;;;;18.78;63.51;99883.41;5115499;28;20107;-76
2021/07/29 04:45:27;;;;;;;;;;;;;;;18.84;63.97;99887.22;5116158;28;20269;-75
2021/07/29 04:47:55;;;;;;;;;;;;;;;18.96;62.66;99882.47;5115903;27;19924;-76
2021/07/29 04:50:22;;;;;;;;;;;;;;;19.14;62.30;99884.03;5115760;28;20373;-76
2021/07/29 04:52:50;;;;;;;;;;;;;;;19.17;62.82;99887.34;5115753;28;19924;-75
2021/07/29 04:55:16;;;;;;;;;;;;;;;19.32;62.23;99872.53;5115572;27;19923;-76
2021/07/29 04:57:43;;;;;;;;;;;;;;;19.48;60.66;99875.19;5115595;28;19924;-76
2021/07/29 05:00:10;;;;;;;;;;;;;;;19.72;61.45;99873.56;5115903;28;19924;-76
2021/07/29 05:02:37;;;;;;;;;;;;;;;19.82;60.99;99865.50;5115499;28;19923;-75
2021/07/29 05:05:05;;;;;;;;;;;;;;;19.58;62.29;99864.47;5115699;28;19931;-75
2021/07/29 05:07:32;;;;;;;;;;;;;;;19.78;61.20;99857.91;5115694;28;19923;-75
2021/07/29 05:09:58;;;;;;;;;;;;;;;20.05;60.62;99855.91;5115747;28;19924;-76
2021/07/29 05:12:25;;;;;;;;;;;;;;;20.32;59.54;99865.28;5115670;28;19924;-75
2021/07/29 05:14:56;;;;;;;;;;;;;;;20.28;58.84;99858.66;5115054;28;19935;-75
2021/07/29 05:17:24;;;;;;;;;;;;;;;20.36;60.09;99850.72;5115512;28;20018;-76
2021/07/29 05:19:50;;;;;;;;;;;;;;;20.50;58.99;99846.56;5114843;28;20124;-75
2021/07/29 05:22:18;;;;;;;;;;;;;;;20.77;57.42;99839.19;5115537;28;19924;-75
2021/07/29 05:24:45;;;;;;;;;;;;;;;20.76;58.22;99848.13;5115126;28;19930;-76
2021/07/29 05:27:11;;;;;;;;;;;;;;;20.82;56.83;99842.16;5114882;28;19927;-75
2021/07/29 05:29:38;;;;;;;;;;;;;;;20.90;58.03;99841.28;5114996;28;19924;-76
2021/07/29 05:32:05;;;;;;;;;;;;;;;20.91;57.94;99834.97;5114963;28;19924;-76
2021/07/29 05:34:32;;;;;;;;;;;;;;;20.74;57.92;99835.09;5115213;27;19924;-76
2021/07/29 05:36:59;;;;;;;;;;;;;;;20.86;58.00;99836.34;5114867;28;19924;-76
2021/07/29 05:39:28;;;;;;;;;;;;;;;20.99;58.31;99827.84;5114795;28;20511;-76
2021/07/29 05:41:54;;;;;;;;;;;;;;;21.21;56.47;99835.97;5115371;28;19965;-75
2021/07/29 05:44:21;;;;;;;;;;;;;;;21.19;58.18;99830.84;5114947;28;19931;-75
2021/07/29 05:46:48;;;;;;;;;;;;;;;21.34;57.84;99825.63;5114770;28;19935;-75
2021/07/29 05:49:14;;;;;;;;;;;;;;;21.17;57.25;99824.94;5114863;28;19923;-76
2021/07/29 05:51:41;;;;;;;;;;;;;;;21.34;57.60;99822.97;5113803;28;20305;-76
2021/07/29 05:54:07;;;;;;;;;;;;;;;21.50;58.07;99825.53;5114536;28;19923;-76
2021/07/29 05:56:35;;;;;;;;;;;;;;;21.65;56.82;99830.03;5114495;28;20405;-76
2021/07/29 05:59:02;;;;;;;;;;;;;;;21.82;55.70;99820.94;5114589;28;19924;-76
2021/07/29 06:01:28;;;;;;;;;;;;;;;21.86;57.00;99818.75;5114647;28;20312;-76
2021/07/29 06:03:55;;;;;;;;;;;;;;;21.80;56.67;99817.66;5113926;28;19923;-75
2021/07/29 06:06:22;;;;;;;;;;;;;;;21.99;55.72;99818.13;5114187;28;20360;-75
2021/07/29 06:08:48;;;;;;;;;;;;;;;21.98;55.88;99811.22;5114321;28;19924;-76
2021/07/29 06:11:15;;;;;;;;;;;;;;;22.29;54.77;99819.81;5114124;28;19930;-76
2021/07/29 06:13:43;;;;;;;;;;;;;;;22.44;55.13;99816.34;5113902;28;20430;-76
2021/07/29 06:16:10;;;;;;;;;;;;;;;22.55;54.46;99815.88;5114034;28;20560;-76
2021/07/29 06:18:42;;;;;;;;;;;;;;;22.31;55.62;99817.00;5114090;28;20373;-76
2021/07/29 06:21:09;;;;;;;;;;;;;;;22.60;54.11;99819.63;5114098;28;19982;-76
2021/07/29 06:23:35;;;;;;;;;;;;;;;22.65;54.31;99816.41;5114133;28;19923;-76
2021/07/29 06:26:02;;;;;;;;;;;;;;;22.54;55.46;99808.94;5113673;28;19923;-75
2021/07/29 06:28:32;;;;;;;;;;;;;;;22.47;54.81;99814.16;5114046;28;20022;-74
2021/07/29 06:31:00;;;;;;;;;;;;;;;22.42;55.01;99810.41;5113759;28;19935;-75
2021/07/29 06:33:26;;;;;;;;;;;;;;;22.41;55.27;99811.44;5113802;28;19924;-76
2021/07/29 06:35:53;;;;;;;;;;;;;;;22.89;54.45;99811.78;5113856;28;19924;-76
2021/07/29 06:38:20;;;;;;;;;;;;;;;22.89;54.02;99799.38;5113611;28;19930;-76
2021/07/29 06:40:46;;;;;;;;;;;;;;;23.19;53.49;99801.94;5113407;28;19930;-76
2021/07/29 06:43:13;;;;;;;;;;;;;;;23.22;53.13;99793.56;5113547;28;20378;-76
2021/07/29 06:45:39;;;;;;;;;;;;;;;23.44;52.20;99779.28;5113596;28;19946;-76
2021/07/29 06:48:07;;;;;;;;;;;;;;;23.20;52.79;99783.19;5113689;28;19924;-75
2021/07/29 06:50:34;;;;;;;;;;;;;;;23.52;53.22;99782.81;5113725;28;19923;-76
2021/07/29 06:53:01;;;;;;;;;;;;;;;23.79;53.69;99784.69;5113216;28;19923;-76
2021/07/29 06:55:28;;;;;;;;;;;;;;;23.69;51.63;99781.53;5113316;28;20373;-75
2021/07/29 06:57:54;;;;;;;;;;;;;;;23.77;52.82;99783.25;5113462;28;20014;-75
2021/07/29 07:00:21;;;;;;;;;;;;;;;23.94;52.29;99781.09;5113023;28;19928;-72
2021/07/29 07:02:47;;;;;;;;;;;;;;;24.52;51.93;99778.97;5112053;28;19924;-75
2021/07/29 07:05:15;;;;;;;;;;;;;;;24.52;50.84;99784.28;5113342;28;19976;-76
2021/07/29 07:07:42;;;;;;;;;;;;;;;24.26;51.87;99777.81;5113113;28;19927;-75
2021/07/29 07:10:09;;;;;;;;;;;;;;;24.58;51.29;99778.16;5113135;28;19924;-75
2021/07/29 07:12:36;;;;;;;;;;;;;;;24.72;50.25;99773.72;5113372;28;19924;-74
2021/07/29 07:15:03;;;;;;;;;;;;;;;24.67;50.90;99770.84;5113116;28;20373;-74
2021/07/29 07:17:29;;;;;;;;;;;;;;;25.37;48.09;99764.22;5113103;28;19930;-74
2021/07/29 07:19:59;;;;;;;;;;;;;;;26.03;47.85;99763.34;5113051;28;19924;-82
2021/07/29 07:22:27;;;;;;;;;;;;;;;27.08;44.97;99768.41;5113402;28;19924;-75
2021/07/29 07:24:54;;;;;;;;;;;;;;;27.58;43.51;99756.94;5112968;28;19924;-71
2021/07/29 07:27:21;;;;;;;;;;;;;;;28.00;42.55;99759.81;5112807;28;19924;-68
2021/07/29 07:29:47;;;;;;;;;;;;;;;28.34;42.01;99753.06;5112667;28;20374;-71
2021/07/29 07:32:14;;;;;;;;;;;;;;;28.35;40.74;99754.66;5113148;28;19962;-71
2021/07/29 07:34:40;;;;;;;;;;;;;;;29.16;41.93;99755.25;5112641;28;19923;-72
2021/07/29 07:37:07;;;;;;;;;;;;;;;29.36;39.75;99752.22;5113081;28;19946;-72
2021/07/29 07:39:36;;;;;;;;;;;;;;;29.93;38.97;99747.13;5112850;28;19924;-72
2021/07/29 07:42:03;;;;;;;;;;;;;;;30.99;35.64;99751.31;5113061;28;19927;-72
2021/07/29 07:44:29;;;;;;;;;;;;;;;30.43;35.21;99739.53;5113014;28;19924;-72
2021/07/29 07:46:56;;;;;;;;;;;;;;;30.08;36.98;99741.25;5112441;28;20370;-73
2021/07/29 07:49:23;;;;;;;;;;;;;;;30.43;35.27;99737.66;5113025;28;19950;-72
2021/07/29 07:51:49;;;;;;;;;;;;;;;30.45;35.23;99737.44;5112548;28;19930;-72
2021/07/29 07:54:16;;;;;;;;;;;;;;;30.53;35.15;99729.81;5112727;28;20399;-72
2021/07/29 07:56:44;;;;;;;;;;;;;;;31.02;35.34;99727.44;5112730;28;19935;-72
2021/07/29 07:59:11;;;;;;;;;;;;;;;30.73;35.15;99728.56;5112573;28;19924;-71
2021/07/29 08:01:40;;;;;;;;;;;;;;;30.76;35.01;99717.31;5112878;28;19924;-72
2021/07/29 08:04:07;;;;;;;;;;;;;;;30.11;36.59;99715.84;5112868;28;19924;-72
2021/07/29 08:06:34;;;;;;;;;;;;;;;30.32;36.14;99717.06;5112569;28;19923;-72
2021/07/29 08:09:01;;;;;;;;;;;;;;;30.55;35.56;99713.47;5112571;28;19924;-72
2021/07/29 08:11:27;;;;;;;;;;;;;;;30.74;35.22;99712.19;5112773;28;20179;-72
2021/07/29 08:13:55;;;;;;;;;;;;;;;31.11;33.91;99709.06;5113226;28;19924;-72
2021/07/29 08:16:22;;;;;;;;;;;;;;;31.65;33.44;99703.13;5116745;28;19927;-74
2021/07/29 08:18:49;;;;;;;;;;;;;;;32.50;31.87;99704.47;5116221;28;19954;-70
2021/07/29 08:21:16;;;;;;;;;;;;;;;32.64;30.46;99701.34;5116695;28;19984;-70
2021/07/29 08:23:43;;;;;;;;;;;;;;;31.92;32.14;99694.34;5115678;28;20393;-71
2021/07/29 08:26:11;;;;;;;;;;;;;;;32.71;31.09;99686.63;5116638;28;19927;-70
2021/07/29 08:28:40;;;;;;;;;;;;;;;32.42;31.04;99690.59;5115967;28;20374;-70
2021/07/29 08:31:09;;;;;;;;;;;;;;;32.11;31.89;99687.59;5116463;28;20011;-70
2021/07/29 08:33:35;;;;;;;;;;;;;;;32.55;30.88;99684.88;5115989;28;20404;-70
2021/07/29 08:36:02;;;;;;;;;;;;;;;32.32;31.41;99692.16;5116165;28;20025;-70
2021/07/29 08:38:28;;;;;;;;;;;;;;;32.55;31.49;99684.88;5116043;28;19924;-73
2021/07/29 08:40:55;;;;;;;;;;;;;;;32.54;30.69;99677.84;5115688;28;19924;-72
2021/07/29 08:43:22;;;;;;;;;;;;;;;32.62;30.85;99682.75;5116193;28;19927;-72
2021/07/29 08:45:51;;;;;;;;;;;;;;;32.80;30.57;99672.66;5115915;28;19924;-72
2021/07/29 08:48:24;;;;;;;;;;;;;;;34.40;28.22;99684.88;5115910;28;20476;-71
2021/07/29 08:50:50;;;;;;;;;;;;;;;34.72;28.76;99681.13;5115875;28;19924;-71
2021/07/29 08:53:17;;;;;;;;;;;;;;;34.13;29.05;99676.97;5115770;28;19924;-71
2021/07/29 08:55:47;;;;;;;;;;;;;;;33.76;28.38;99669.81;5115852;28;19931;-71
2021/07/29 08:58:14;;;;;;;;;;;;;;;33.49;29.23;99669.13;5115637;28;19923;-71
2021/07/29 09:00:40;;;;;;;;;;;;;;;33.40;29.76;99666.13;5115367;28;19924;-71
2021/07/29 09:03:24;;;;;;;;;;;;;;;33.69;29.97;99668.44;5115486;28;19927;-76
2021/07/29 09:06:05;;;;;;;;;;;;;;;33.61;29.03;99664.34;5115302;28;19930;-72
2021/07/29 09:08:42;;;;;;;;;;;;;;;34.61;28.41;99666.81;5115526;28;19924;-74
2021/07/29 09:11:24;;;;;;;;;;;;;;;35.69;27.10;99653.94;5115410;28;19969;-77
2021/07/29 09:14:01;;;;;;;;;;;;;;;36.53;25.53;99656.72;5115073;28;19930;-77
2021/07/29 09:16:28;;;;;;;;;;;;;;;35.73;25.53;99643.38;5115272;28;19977;-72
2021/07/29 09:18:56;;;;;;;;;;;;;;;36.08;25.95;99642.41;5115034;28;20396;-72
2021/07/29 09:21:22;;;;;;;;;;;;;;;36.30;25.68;99630.34;5115442;28;19996;-72
2021/07/29 09:24:03;;;;;;;;;;;;;;;36.29;25.85;99628.72;5114897;27;20378;-72
2021/07/29 09:26:29;;;;;;;;;;;;;;;35.98;25.71;99629.69;5114529;28;20270;-71
2021/07/29 09:28:56;;;;;;;;;;;;;;;36.56;25.20;99620.16;5114675;28;20396;-73
2021/07/29 09:31:23;;;;;;;;;;;;;;;36.65;25.94;99617.63;5115306;28;19928;-71
2021/07/29 09:33:59;;;;;;;;;;;;;;;36.53;25.56;99615.25;5115027;28;19930;-72
2021/07/29 09:36:25;;;;;;;;;;;;;;;35.55;28.45;99615.03;5114817;28;20385;-72
2021/07/29 09:38:52;;;;;;;;;;;;;;;36.67;25.76;99620.88;5114541;28;19931;-72
2021/07/29 09:41:26;;;;;;;;;;;;;;;36.65;25.11;99615.72;5115044;28;19923;-72
2021/07/29 09:43:54;;;;;;;;;;;;;;;36.12;25.75;99621.81;5114805;28;19927;-72
2021/07/29 09:46:21;;;;;;;;;;;;;;;36.67;25.95;99610.84;5114992;27;19924;-69
2021/07/29 09:48:48;;;;;;;;;;;;;;;37.04;24.91;99604.78;5114662;28;19924;-71
2021/07/29 09:51:17;;;;;;;;;;;;;;;37.12;25.40;99606.06;5114629;28;19924;-72
2021/07/29 09:53:44;;;;;;;;;;;;;;;36.60;24.68;99608.44;5114704;27;19928;-75
2021/07/29 09:56:12;;;;;;;;;;;;;;;37.15;23.82;99605.50;5114583;28;19953;-73
2021/07/29 09:58:40;;;;;;;;;;;;;;;37.33;23.07;99600.41;5114451;28;19931;-71
2021/07/29 10:01:07;;;;;;;;;;;;;;;38.16;22.52;99606.38;5114529;28;19924;-72
2021/07/29 10:03:35;;;;;;;;;;;;;;;36.59;23.21;99601.44;5114345;28;19934;-72
2021/07/29 10:06:03;;;;;;;;;;;;;;;34.50;25.85;99591.44;5114292;28;19931;-72
2021/07/29 10:08:33;;;;;;;;;;;;;;;36.77;23.73;99596.41;5114132;28;20408;-73
2021/07/29 10:11:00;;;;;;;;;;;;;;;37.17;23.11;99599.78;5114291;28;19924;-71
2021/07/29 10:13:33;;;;;;;;;;;;;;;37.66;21.99;99594.06;5114214;28;19924;-72
2021/07/29 10:16:00;;;;;;;;;;;;;;;36.94;22.90;99587.81;5114177;28;19924;-71
2021/07/29 10:18:27;;;;;;;;;;;;;;;38.05;22.76;99592.97;5114028;28;20290;-71
2021/07/29 10:21:22;;;;;;;;;;;;;;;36.88;23.10;99587.06;5114066;28;19924;-74
2021/07/29 10:23:53;;;;;;;;;;;;;;;39.33;21.56;99588.00;5113780;28;19923;-78
2021/07/29 10:26:20;;;;;;;;;;;;;;;39.63;21.17;99585.75;5114208;28;19931;-70
2021/07/29 10:28:47;;;;;;;;;;;;;;;37.94;23.70;99591.47;5113939;28;20370;-71
2021/07/29 10:31:15;;;;;;;;;;;;;;;38.09;22.30;99588.53;5114168;28;19930;-73
2021/07/29 10:33:42;;;;;;;;;;;;;;;38.87;21.66;99578.00;5114106;28;19930;-73
2021/07/29 10:36:09;;;;;;;;;;;;;;;37.38;22.53;99567.78;5114445;28;19969;-72
2021/07/29 10:38:43;;;;;;;;;;;;;;;37.13;23.92;99577.88;5113885;28;19943;-72
2021/07/29 10:41:24;;;;;;;;;;;;;;;37.26;22.06;99569.03;5113637;28;19924;-72
2021/07/29 10:43:52;;;;;;;;;;;;;;;37.87;22.09;99558.47;5113156;28;19924;-71
2021/07/29 10:46:19;;;;;;;;;;;;;;;34.29;26.90;99553.63;5113405;28;20262;-71
2021/07/29 10:49:12;;;;;;;;;;;;;;;33.85;27.54;99551.41;5113632;28;19927;-72
2021/07/29 10:51:39;;;;;;;;;;;;;;;32.37;30.04;99539.84;5113228;28;19930;-75
2021/07/29 10:54:05;;;;;;;;;;;;;;;33.56;28.80;99537.59;5113433;28;19934;-74
2021/07/29 10:56:32;;;;;;;;;;;;;;;36.90;24.72;99533.38;5113431;28;19924;-76
2021/07/29 10:59:00;;;;;;;;;;;;;;;36.89;23.58;99530.94;5113103;28;20370;-72
2021/07/29 11:01:41;;;;;;;;;;;;;;;36.67;23.37;99520.63;5113122;28;20374;-71
2021/07/29 11:04:08;;;;;;;;;;;;;;;37.24;22.81;99519.69;5113043;28;19924;-71
2021/07/29 11:06:37;;;;;;;;;;;;;;;37.39;22.70;99521.41;5112680;28;20202;-71
2021/07/29 11:09:09;;;;;;;;;;;;;;;38.24;22.71;99522.31;5113175;28;20018;-72
2021/07/29 11:11:36;;;;;;;;;;;;;;;38.81;22.29;99515.88;5113358;28;19924;-71
2021/07/29 11:14:04;;;;;;;;;;;;;;;37.56;24.51;99511.97;5113319;28;19931;-71
2021/07/29 11:16:31;;;;;;;;;;;;;;;35.60;26.51;99512.25;5113072;28;20305;-74
2021/07/29 11:18:58;;;;;;;;;;;;;;;38.41;23.59;99510.91;5112775;28;20382;-73
2021/07/29 11:21:25;;;;;;;;;;;;;;;37.57;23.85;99508.97;5113083;28;19934;-74
2021/07/29 11:23:52;;;;;;;;;;;;;;;38.85;22.78;99495.16;5112670;28;20263;-73
2021/07/29 11:26:18;;;;;;;;;;;;;;;39.76;20.76;99492.34;5112788;28;19938;-73
2021/07/29 11:28:45;;;;;;;;;;;;;;;35.94;25.50;99492.53;5112807;28;20378;-79
2021/07/29 11:31:15;;;;;;;;;;;;;;;33.49;29.13;99502.75;5113242;28;19924;-73
2021/07/29 11:33:47;;;;;;;;;;;;;;;32.67;30.54;99498.91;5112895;28;19924;-79
2021/07/29 11:36:14;;;;;;;;;;;;;;;33.75;29.74;99516.34;5112860;28;19924;-79
2021/07/29 11:38:41;;;;;;;;;;;;;;;35.73;26.87;99525.13;5112955;28;19931;-75
2021/07/29 11:41:08;;;;;;;;;;;;;;;36.38;26.05;99513.31;5113120;28;19950;-79
2021/07/29 11:43:35;;;;;;;;;;;;;;;36.34;26.31;99513.06;5112855;28;20385;-78
2021/07/29 11:46:04;;;;;;;;;;;;;;;35.89;26.86;99520.44;5112832;28;19930;-78
2021/07/29 11:48:32;;;;;;;;;;;;;;;32.01;33.14;99516.16;5112749;28;20346;-78
2021/07/29 11:50:59;;;;;;;;;;;;;;;33.23;31.12;99520.75;5116931;28;19924;-77
2021/07/29 11:53:37;;;;;;;;;;;;;;;33.20;30.55;99507.00;5117422;28;19934;-77
2021/07/29 11:56:04;;;;;;;;;;;;;;;33.58;29.46;99514.69;5117138;28;20298;-77
2021/07/29 11:58:30;;;;;;;;;;;;;;;32.65;31.03;99507.25;5117119;28;19923;-78
2021/07/29 12:00:57;;;;;;;;;;;;;;;31.43;33.54;99515.00;5116497;28;19931;-75
2021/07/29 12:03:25;;;;;;;;;;;;;;;33.26;30.58;99520.22;5116509;28;19924;-79
2021/07/29 12:05:54;;;;;;;;;;;;;;;32.49;31.15;99518.97;5116288;28;19924;-77
2021/07/29 12:08:21;;;;;;;;;;;;;;;34.79;28.52;99516.09;5116917;28;19931;-77
2021/07/29 12:10:47;;;;;;;;;;;;;;;36.16;26.98;99505.66;5116645;28;19947;-77
2021/07/29 12:13:17;;;;;;;;;;;;;;;33.54;32.51;99501.97;5116699;28;19927;-77
2021/07/29 12:15:47;;;;;;;;;;;;;;;34.88;31.65;99488.19;5116161;28;19924;-78
2021/07/29 12:18:15;;;;;;;;;;;;;;;35.61;29.66;99481.41;5116380;28;19924;-79
2021/07/29 12:20:42;;;;;;;;;;;;;;;37.04;28.09;99479.28;5116096;28;20044;-77
2021/07/29 12:23:11;;;;;;;;;;;;;;;36.95;28.12;99470.19;5116649;28;19989;-78
2021/07/29 12:25:37;;;;;;;;;;;;;;;35.64;29.04;99463.81;5116079;28;20281;-79
2021/07/29 12:28:04;;;;;;;;;;;;;;;38.04;25.86;99480.03;5116123;28;19924;-77
2021/07/29 12:30:32;;;;;;;;;;;;;;;37.89;26.64;99475.66;5116435;28;19947;-76
2021/07/29 12:33:05;;;;;;;;;;;;;;;37.62;26.50;99487.19;5116198;28;19934;-78
2021/07/29 12:35:31;;;;;;;;;;;;;;;34.82;30.20;99485.81;5116155;28;19936;-77
2021/07/29 12:37:58;;;;;;;;;;;;;;;31.79;33.60;99510.81;5116067;28;19935;-77
2021/07/29 12:40:27;;;;;;;;;;;;;;;29.18;36.77;99530.84;5116183;28;19924;-78
2021/07/29 12:42:54;;;;;;;;;;;;;;;27.35;39.51;99536.69;5115983;28;19943;-77
2021/07/29 12:45:21;;;;;;;;;;;;;;;26.26;41.90;99541.59;5115823;28;19930;-77
2021/07/29 12:48:03;;;;;;;;;;;;;;;25.66;43.08;99545.59;5115640;28;20498;-77
2021/07/29 12:50:38;;;;;;;;;;;;;;;25.14;44.88;99550.88;5115592;28;20289;-77